首页
METAR-TAF:

METAR-TAF

机场 :

圣彼得堡, 俄罗斯

普爾科沃機場

纬度: 59-58N, 经度: 030-18E, 海拔: 4米

当前天气观测

该预报发布于20分钟前的22:00 UTC
风速4节,风向
温度 6°C
湿度 93%
气压 997 hPa
能見度: 8000
散云层高于400英尺
多云层高于2000英尺, 积雨云.
阴天层高于3000英尺
小阵雨

METAR: ULLI 252200Z 01002MPS 8000 -SHRA SCT004 BKN020CB OVC030 06/05 Q0997 R28R/290050 NOSIG RMK QBB130 OBST OBSC

时间: 01:20 (22:20 UTC)

预报

该预报发布于2小时和23分钟前的19:57 UTC
预报有效从25日的 21点(UTC)到 26日的 21点(UTC)
风速6节,风向西转西南
能見度: 6000
多云层高于1000英尺
多云层高于2000英尺, 积雨云.
短暂存在
从 25日的 21点(UTC)到 26日的 06点(UTC)
风速2节,风向多变
能見度: 1500
多云层高于500英尺
多云层高于1200英尺, 积雨云.
小阵雨, 轻雾
成为
从 26日的 06点(UTC)到 26日的 08点(UTC)
风速10节,风向西
短暂存在
从 26日的 06点(UTC)到 26日的 21点(UTC)
风速10节,风向西转西北,有时为19节阵风
能見度: 3100
多云层高于1100英尺
多云层高于1500英尺, 积雨云.
小阵雨

TAF: ULLI 251957Z 2521/2621 24003MPS 6000 BKN010 BKN020CB TEMPO 2521/2606 VRB01MPS 1500 -SHRA BR BKN005 BKN012CB BECMG 2606/2608 26005MPS TEMPO 2606/2621 29005G10MPS 3100 -SHRA BKN011 BKN015CB

超过4000个机场的气象观测和天气预报(METAR&TAF报告)。

可查询的气象台以黄色和红色小点在地图上表示。

将鼠标移到小点上方,可查看气象台名称。

然后点击查看天气观测和预报。

如需切换地图:点击带黑十字的绿色按钮放大地图;点击带横线的绿色按钮缩小地图;或者点击绿色箭头查看邻近地区的地图。


METAR-TAF: